createdAt,value
2022-10-01T00:01:07.479Z,7.60
2022-10-01T00:03:35.197Z,7.64
2022-10-01T00:06:03.942Z,7.65
2022-10-01T00:08:33.014Z,7.65
2022-10-01T00:10:59.532Z,7.70
2022-10-01T00:13:26.070Z,7.78
2022-10-01T00:15:52.583Z,7.82
2022-10-01T00:18:19.139Z,7.80
2022-10-01T00:20:45.678Z,7.86
2022-10-01T00:23:13.296Z,7.88
2022-10-01T00:25:41.437Z,7.88
2022-10-01T00:28:08.089Z,7.88
2022-10-01T00:30:39.606Z,7.91
2022-10-01T00:33:06.764Z,7.90
2022-10-01T00:35:33.327Z,7.99
2022-10-01T00:37:59.842Z,8.03
2022-10-01T00:40:26.381Z,8.00
2022-10-01T00:42:54.293Z,7.98
2022-10-01T00:45:20.850Z,8.08
2022-10-01T00:47:51.579Z,8.12
2022-10-01T00:50:23.988Z,8.13
2022-10-01T00:52:53.680Z,8.02
2022-10-01T00:55:23.508Z,8.13
2022-10-01T00:57:50.584Z,8.17
2022-10-01T01:00:18.647Z,8.19
2022-10-01T01:02:45.193Z,8.25
2022-10-01T01:05:12.403Z,8.26
2022-10-01T01:07:41.202Z,8.33
2022-10-01T01:10:09.003Z,8.33
2022-10-01T01:13:00.792Z,8.33
2022-10-01T01:15:36.326Z,8.32
2022-10-01T01:18:08.062Z,8.31
2022-10-01T01:20:53.326Z,8.34
2022-10-01T01:23:47.033Z,8.31
2022-10-01T01:26:24.832Z,8.25
2022-10-01T01:28:57.694Z,8.22
2022-10-01T01:31:29.931Z,8.19
2022-10-01T01:33:59.948Z,8.16
2022-10-01T01:36:31.302Z,8.13
2022-10-01T01:39:01.551Z,8.05
2022-10-01T01:41:29.618Z,8.01
2022-10-01T01:44:00.983Z,7.91
2022-10-01T01:46:32.311Z,7.92
2022-10-01T01:49:01.680Z,7.89
2022-10-01T01:51:34.110Z,7.74
2022-10-01T01:54:01.032Z,7.62
2022-10-01T01:56:28.122Z,7.56
2022-10-01T01:58:54.739Z,7.51
2022-10-01T02:01:37.945Z,7.57
2022-10-01T02:04:09.019Z,7.59
2022-10-01T02:06:48.776Z,7.59
2022-10-01T02:09:27.255Z,7.34
2022-10-01T02:12:07.268Z,7.28
2022-10-01T02:14:40.916Z,7.34
2022-10-01T02:17:16.198Z,7.39
2022-10-01T02:19:52.404Z,7.41
2022-10-01T02:22:22.697Z,7.39
2022-10-01T02:24:54.547Z,7.36
2022-10-01T02:27:24.073Z,7.41
2022-10-01T02:29:51.011Z,7.33
2022-10-01T02:32:20.344Z,7.28
2022-10-01T02:34:49.805Z,7.34
2022-10-01T02:37:17.935Z,7.35
2022-10-01T02:39:47.630Z,7.34
2022-10-01T02:42:16.565Z,7.31
2022-10-01T02:44:45.014Z,7.26
2022-10-01T02:47:18.142Z,7.27
2022-10-01T02:49:47.216Z,7.17
2022-10-01T02:52:21.056Z,7.13
2022-10-01T02:54:51.755Z,7.15
2022-10-01T02:57:19.157Z,7.09
2022-10-01T02:59:45.724Z,7.07
2022-10-01T03:02:12.646Z,7.09
2022-10-01T03:04:39.361Z,7.04
2022-10-01T03:07:07.517Z,7.06
2022-10-01T03:09:35.143Z,7.07
2022-10-01T03:12:02.228Z,7.03
2022-10-01T03:14:28.945Z,6.99
2022-10-01T03:16:55.527Z,6.97
2022-10-01T03:19:22.060Z,6.99
2022-10-01T03:21:48.657Z,6.95
2022-10-01T03:24:16.546Z,6.90
2022-10-01T03:26:43.100Z,6.85
2022-10-01T03:29:09.732Z,6.92
2022-10-01T03:31:36.790Z,6.94
2022-10-01T03:34:03.647Z,6.99
2022-10-01T03:36:30.380Z,6.93
2022-10-01T03:38:57.112Z,6.87
2022-10-01T03:41:25.139Z,6.87
2022-10-01T03:43:51.725Z,6.87
2022-10-01T03:46:18.261Z,6.91
2022-10-01T03:48:44.800Z,6.92
2022-10-01T03:51:11.351Z,6.92
2022-10-01T03:53:37.887Z,6.93
2022-10-01T03:56:04.635Z,6.90
2022-10-01T03:58:32.527Z,6.85
2022-10-01T04:00:59.079Z,6.85
2022-10-01T04:03:25.609Z,6.85
2022-10-01T04:05:52.335Z,6.79
2022-10-01T04:08:23.438Z,6.84
2022-10-01T04:10:50.896Z,6.82
2022-10-01T04:13:17.628Z,6.80
2022-10-01T04:15:45.577Z,6.81
2022-10-01T04:18:12.191Z,6.78
2022-10-01T04:20:38.953Z,6.73
2022-10-01T04:23:05.668Z,6.80
2022-10-01T04:25:32.555Z,6.74
2022-10-01T04:28:01.008Z,6.66
2022-10-01T04:30:30.451Z,6.64
2022-10-01T04:32:58.514Z,6.63
2022-10-01T04:35:25.991Z,6.63
2022-10-01T04:37:56.236Z,6.57
2022-10-01T04:40:22.775Z,6.60
2022-10-01T04:42:49.335Z,6.60
2022-10-01T04:45:16.071Z,6.62
2022-10-01T04:47:47.992Z,6.62
2022-10-01T04:50:15.970Z,6.62
2022-10-01T04:52:42.551Z,6.62
2022-10-01T04:55:09.451Z,6.67
2022-10-01T04:57:36.552Z,6.74
2022-10-01T05:00:03.912Z,6.77
2022-10-01T05:02:30.631Z,6.81
2022-10-01T05:04:57.199Z,6.80
2022-10-01T05:07:25.113Z,6.78
2022-10-01T05:09:51.668Z,6.87
2022-10-01T05:12:22.342Z,6.90
2022-10-01T05:14:51.180Z,6.99
2022-10-01T05:17:17.771Z,7.07
2022-10-01T05:19:44.392Z,7.09
2022-10-01T05:22:11.062Z,7.13
2022-10-01T05:24:39.764Z,7.18
2022-10-01T05:27:06.461Z,7.29
2022-10-01T05:29:32.983Z,7.37
2022-10-01T05:31:59.578Z,7.51
2022-10-01T05:34:26.123Z,7.56
2022-10-01T05:36:52.695Z,7.65
2022-10-01T05:39:19.241Z,7.71
2022-10-01T05:41:47.194Z,7.79
2022-10-01T05:44:13.730Z,7.84
2022-10-01T05:46:40.312Z,7.87
2022-10-01T05:49:06.844Z,7.88
2022-10-01T05:51:33.646Z,7.92
2022-10-01T05:54:00.382Z,7.99
2022-10-01T05:56:27.061Z,8.02
2022-10-01T05:58:54.973Z,8.11
2022-10-01T06:01:21.547Z,8.14
2022-10-01T06:03:50.824Z,8.20
2022-10-01T06:06:20.994Z,8.26
2022-10-01T06:08:47.536Z,8.30
2022-10-01T06:11:14.082Z,8.31
2022-10-01T06:13:40.627Z,8.41
2022-10-01T06:16:08.629Z,8.50
2022-10-01T06:18:35.229Z,8.55
2022-10-01T06:21:01.796Z,8.65
2022-10-01T06:23:28.442Z,8.63
2022-10-01T06:25:55.026Z,8.59
2022-10-01T06:28:21.616Z,8.68
2022-10-01T06:30:48.347Z,8.74
2022-10-01T06:33:17.632Z,8.70
2022-10-01T06:35:45.610Z,8.75
2022-10-01T06:38:12.175Z,8.80
2022-10-01T06:40:39.686Z,8.87
2022-10-01T06:43:06.245Z,8.77
2022-10-01T06:45:36.736Z,8.80
2022-10-01T06:48:04.145Z,8.86
2022-10-01T06:50:33.283Z,8.90
2022-10-01T06:53:00.812Z,8.89
2022-10-01T06:55:29.111Z,9.04
2022-10-01T06:57:56.631Z,9.11
2022-10-01T07:00:23.265Z,9.21
2022-10-01T07:02:50.051Z,9.36
2022-10-01T07:05:16.814Z,9.33
2022-10-01T07:07:44.762Z,9.37
2022-10-01T07:10:12.570Z,9.48
2022-10-01T07:12:39.220Z,9.44
2022-10-01T07:15:07.338Z,9.44
2022-10-01T07:17:34.568Z,9.51
2022-10-01T07:20:01.420Z,9.63
2022-10-01T07:22:27.939Z,9.65
2022-10-01T07:24:55.884Z,9.79
2022-10-01T07:27:22.577Z,9.68
2022-10-01T07:29:49.125Z,9.77
2022-10-01T07:32:15.675Z,9.77
2022-10-01T07:34:42.257Z,9.77
2022-10-01T07:37:09.437Z,9.67
2022-10-01T07:39:36.246Z,9.67
2022-10-01T07:42:04.478Z,9.75
2022-10-01T07:44:31.035Z,9.95
2022-10-01T07:46:57.606Z,10.04
2022-10-01T07:49:24.412Z,10.06
2022-10-01T07:51:51.692Z,10.17
2022-10-01T07:54:18.273Z,10.17
2022-10-01T07:56:44.838Z,10.18
2022-10-01T07:59:12.729Z,10.29
2022-10-01T08:01:39.433Z,10.31
2022-10-01T08:04:06.358Z,10.40
2022-10-01T08:06:32.892Z,10.55
2022-10-01T08:08:59.428Z,10.53
2022-10-01T08:11:25.996Z,10.65
2022-10-01T08:13:52.550Z,10.63
2022-10-01T08:16:20.501Z,10.56
2022-10-01T08:18:47.080Z,10.52
2022-10-01T08:21:13.639Z,10.58
2022-10-01T08:23:40.201Z,10.79
2022-10-01T08:26:08.207Z,10.88
2022-10-01T08:28:35.427Z,10.91
2022-10-01T08:31:05.188Z,11.19
2022-10-01T08:33:33.606Z,11.25
2022-10-01T08:36:01.444Z,11.12
2022-10-01T08:38:28.087Z,11.11
2022-10-01T08:40:54.776Z,11.00
2022-10-01T08:43:32.292Z,10.98
2022-10-01T08:46:03.029Z,10.91
2022-10-01T08:48:44.898Z,10.85
2022-10-01T08:51:17.647Z,10.87
2022-10-01T08:53:48.187Z,11.07
2022-10-01T08:56:20.370Z,11.11
2022-10-01T08:58:53.279Z,11.03
2022-10-01T09:01:20.003Z,11.09
2022-10-01T09:03:48.353Z,11.01
2022-10-01T09:06:20.515Z,11.07
2022-10-01T09:09:01.565Z,10.97
2022-10-01T09:11:42.839Z,11.06
2022-10-01T09:14:22.139Z,11.03
2022-10-01T09:16:57.830Z,10.95
2022-10-01T09:19:47.991Z,11.06
2022-10-01T09:22:25.190Z,11.11
2022-10-01T09:25:01.104Z,11.05
2022-10-01T09:27:28.282Z,11.19
2022-10-01T09:29:58.529Z,10.96
2022-10-01T09:32:30.262Z,10.97
2022-10-01T09:35:04.666Z,10.93
2022-10-01T09:37:41.859Z,11.01
2022-10-01T09:40:17.654Z,11.00
2022-10-01T09:42:44.282Z,11.07
2022-10-01T09:45:12.015Z,11.07
2022-10-01T09:47:38.567Z,11.09
2022-10-01T09:50:07.186Z,11.03
2022-10-01T09:52:36.183Z,11.15
2022-10-01T09:55:06.184Z,11.19
2022-10-01T09:57:36.474Z,11.23
2022-10-01T10:00:06.911Z,11.38
2022-10-01T10:02:42.369Z,11.47
2022-10-01T10:05:17.056Z,11.66
2022-10-01T10:07:45.708Z,11.62
2022-10-01T10:10:23.292Z,11.63
2022-10-01T10:12:56.166Z,11.40
2022-10-01T10:15:23.701Z,11.29
2022-10-01T10:17:50.414Z,11.47
2022-10-01T10:20:25.298Z,11.50
2022-10-01T10:22:52.021Z,11.39
2022-10-01T10:25:24.562Z,11.31
2022-10-01T10:27:53.973Z,11.00
2022-10-01T10:30:21.676Z,10.91
2022-10-01T10:32:48.328Z,10.84
2022-10-01T10:35:19.538Z,10.74
2022-10-01T10:37:51.435Z,10.58
2022-10-01T10:40:18.625Z,10.45
2022-10-01T10:42:47.839Z,10.42
2022-10-01T10:45:18.074Z,10.50
2022-10-01T10:47:46.731Z,10.44
2022-10-01T10:50:30.420Z,10.38
2022-10-01T10:52:58.511Z,10.28
2022-10-01T10:55:27.339Z,10.26
2022-10-01T10:57:57.525Z,10.23
2022-10-01T11:00:25.781Z,10.23
2022-10-01T11:02:55.746Z,10.30
2022-10-01T11:05:24.407Z,10.20
2022-10-01T11:07:54.734Z,10.21
2022-10-01T11:10:41.450Z,10.11
2022-10-01T11:13:54.780Z,10.15
2022-10-01T11:16:47.598Z,10.08
2022-10-01T11:19:29.945Z,10.09
2022-10-01T11:22:14.353Z,10.01
2022-10-01T11:25:00.076Z,9.90
2022-10-01T11:27:35.871Z,9.94
2022-10-01T11:30:07.579Z,9.94
2022-10-01T11:32:39.441Z,9.94
2022-10-01T11:35:20.661Z,9.89
2022-10-01T11:38:00.651Z,9.85
2022-10-01T11:40:32.357Z,9.91
2022-10-01T11:43:05.119Z,9.88
2022-10-01T11:45:34.949Z,9.96
2022-10-01T11:48:07.411Z,10.02
2022-10-01T11:50:39.330Z,9.99
2022-10-01T11:53:12.261Z,9.93
2022-10-01T11:55:43.550Z,9.90
2022-10-01T11:58:17.705Z,9.89
2022-10-01T12:00:54.382Z,9.84
2022-10-01T12:03:28.693Z,9.80
2022-10-01T12:05:56.686Z,9.81
2022-10-01T12:08:26.227Z,9.91
2022-10-01T12:10:56.447Z,9.86
2022-10-01T12:13:30.005Z,9.97
2022-10-01T12:16:00.981Z,9.87
2022-10-01T12:18:32.265Z,9.83
2022-10-01T12:21:01.605Z,9.85
2022-10-01T12:23:30.742Z,9.92
2022-10-01T12:26:06.509Z,9.96
2022-10-01T12:28:40.905Z,10.01
2022-10-01T12:31:14.630Z,9.90
2022-10-01T12:34:02.865Z,10.05
2022-10-01T12:36:43.146Z,10.01
2022-10-01T12:39:25.855Z,10.12
2022-10-01T12:42:02.633Z,10.15
2022-10-01T12:44:50.078Z,10.18
2022-10-01T12:47:35.704Z,10.07
2022-10-01T12:50:12.181Z,10.14
2022-10-01T12:52:45.103Z,10.19
2022-10-01T12:55:23.660Z,10.24
2022-10-01T12:58:03.531Z,10.25
2022-10-01T13:00:39.028Z,10.31
2022-10-01T13:03:34.282Z,10.32
2022-10-01T13:06:11.519Z,10.37
2022-10-01T13:08:52.387Z,10.33
2022-10-01T13:11:30.150Z,10.43
2022-10-01T13:13:57.656Z,10.41
2022-10-01T13:16:31.659Z,10.48
2022-10-01T13:19:05.685Z,10.51
2022-10-01T13:21:50.024Z,10.47
2022-10-01T13:24:24.907Z,10.69
2022-10-01T13:26:57.882Z,10.67
2022-10-01T13:29:35.373Z,10.74
2022-10-01T13:32:23.031Z,10.83
2022-10-01T13:34:49.570Z,10.68
2022-10-01T13:37:18.004Z,10.71
2022-10-01T13:39:46.068Z,10.71
2022-10-01T13:42:22.167Z,10.63
2022-10-01T13:44:53.633Z,10.61
2022-10-01T13:47:22.823Z,10.67
2022-10-01T13:49:56.498Z,10.71
2022-10-01T13:52:23.203Z,10.71
2022-10-01T13:54:53.203Z,10.67
2022-10-01T13:57:29.026Z,10.67
2022-10-01T14:00:00.715Z,10.72
2022-10-01T14:02:34.767Z,10.79
2022-10-01T14:05:27.919Z,10.89
2022-10-01T14:08:02.867Z,10.96
2022-10-01T14:10:36.481Z,11.03
2022-10-01T14:13:04.699Z,11.00
2022-10-01T14:15:41.489Z,10.95
2022-10-01T14:18:14.650Z,11.01
2022-10-01T14:20:53.661Z,11.16
2022-10-01T14:23:27.767Z,11.18
2022-10-01T14:26:01.885Z,11.31
2022-10-01T14:28:59.406Z,11.41
2022-10-01T14:31:37.001Z,11.46
2022-10-01T14:34:38.775Z,11.42
2022-10-01T14:37:07.223Z,11.34
2022-10-01T14:39:33.888Z,11.38
2022-10-01T14:42:16.640Z,11.50
2022-10-01T14:44:45.971Z,11.49
2022-10-01T14:47:16.843Z,11.47
2022-10-01T14:49:44.779Z,11.44
2022-10-01T14:52:19.903Z,11.44
2022-10-01T14:54:50.879Z,11.29
2022-10-01T14:57:26.604Z,11.17
2022-10-01T14:59:53.903Z,11.20
2022-10-01T15:02:22.420Z,11.06
2022-10-01T15:04:51.838Z,11.05
2022-10-01T15:07:18.742Z,11.04
2022-10-01T15:09:45.909Z,11.05
2022-10-01T15:12:13.654Z,11.02
2022-10-01T15:14:41.966Z,10.99
2022-10-01T15:17:18.815Z,10.95
2022-10-01T15:19:46.660Z,10.91
2022-10-01T15:22:14.638Z,10.90
2022-10-01T15:24:43.390Z,10.90
2022-10-01T15:27:12.260Z,10.89
2022-10-01T15:29:40.072Z,10.89
2022-10-01T15:32:07.466Z,10.87
2022-10-01T15:34:34.871Z,10.88
2022-10-01T15:37:01.901Z,10.88
2022-10-01T15:39:32.333Z,10.88
2022-10-01T15:42:01.219Z,10.85
2022-10-01T15:44:40.859Z,10.84
2022-10-01T15:47:34.563Z,10.86
2022-10-01T15:50:03.503Z,10.88
2022-10-01T15:52:33.507Z,10.88
2022-10-01T15:55:01.534Z,10.90
2022-10-01T15:57:28.961Z,10.94
2022-10-01T15:59:56.693Z,10.97
2022-10-01T16:02:26.692Z,10.99
2022-10-01T16:04:53.913Z,11.01
2022-10-01T16:07:25.318Z,11.02
2022-10-01T16:09:55.730Z,11.07
2022-10-01T16:12:23.728Z,11.01
2022-10-01T16:15:00.986Z,10.98
2022-10-01T16:17:34.362Z,11.02
2022-10-01T16:20:17.325Z,11.03
2022-10-01T16:22:44.320Z,11.09
2022-10-01T16:25:31.992Z,11.09
2022-10-01T16:28:00.965Z,11.05
2022-10-01T16:30:28.764Z,11.05
2022-10-01T16:32:56.753Z,11.03
2022-10-01T16:35:24.759Z,11.05
2022-10-01T16:37:52.406Z,11.00
2022-10-01T16:40:21.203Z,11.00
2022-10-01T16:42:48.942Z,10.98
2022-10-01T16:45:19.624Z,11.02
2022-10-01T16:47:46.295Z,11.02
2022-10-01T16:50:15.510Z,11.03
2022-10-01T16:52:42.225Z,10.98
2022-10-01T16:55:17.114Z,10.99
2022-10-01T16:57:43.759Z,10.97
2022-10-01T17:00:13.506Z,10.94
2022-10-01T17:02:41.392Z,10.94
2022-10-01T17:05:17.592Z,10.93
2022-10-01T17:07:44.143Z,10.94
2022-10-01T17:10:10.799Z,10.96
2022-10-01T17:12:37.352Z,10.97
2022-10-01T17:15:04.587Z,10.95
2022-10-01T17:17:31.157Z,10.95
2022-10-01T17:19:59.116Z,10.93
2022-10-01T17:22:25.661Z,10.93
2022-10-01T17:24:52.240Z,10.97
2022-10-01T17:27:18.832Z,10.96
2022-10-01T17:29:45.585Z,10.97
2022-10-01T17:32:12.127Z,10.97
2022-10-01T17:34:38.688Z,10.97
2022-10-01T17:37:06.560Z,10.96
2022-10-01T17:39:33.153Z,10.98
2022-10-01T17:41:59.709Z,10.99
2022-10-01T17:44:26.267Z,11.01
2022-10-01T17:46:52.842Z,11.03
2022-10-01T17:49:19.393Z,11.09
2022-10-01T17:51:45.963Z,11.05
2022-10-01T17:54:13.871Z,11.03
2022-10-01T17:56:40.435Z,11.03
2022-10-01T17:59:07.002Z,11.00
2022-10-01T18:01:33.836Z,11.02
2022-10-01T18:04:00.716Z,11.01
2022-10-01T18:06:27.445Z,10.99
2022-10-01T18:08:56.204Z,11.03
2022-10-01T18:11:25.879Z,11.03
2022-10-01T18:13:52.536Z,11.01
2022-10-01T18:16:19.819Z,11.02
2022-10-01T18:21:33.403Z,11.06
2022-10-01T18:24:04.124Z,11.05
2022-10-01T18:26:32.877Z,11.05
2022-10-01T18:29:00.158Z,11.07
2022-10-01T18:31:36.099Z,11.06
2022-10-01T18:34:12.097Z,11.02
2022-10-01T18:36:47.250Z,11.07
2022-10-01T18:39:17.352Z,11.11
2022-10-01T18:41:45.387Z,11.13
2022-10-01T18:44:17.999Z,11.10
2022-10-01T18:46:55.730Z,11.10
2022-10-01T18:49:42.732Z,11.16
2022-10-01T18:52:18.610Z,11.10
2022-10-01T18:55:05.898Z,11.10
2022-10-01T18:57:50.855Z,11.08
2022-10-01T19:00:19.552Z,11.08
2022-10-01T19:03:18.866Z,11.11
2022-10-01T19:06:11.362Z,11.09
2022-10-01T19:08:51.106Z,11.06
2022-10-01T19:11:25.782Z,11.10
2022-10-01T19:14:16.036Z,11.06
2022-10-01T19:16:50.723Z,11.09
2022-10-01T19:19:30.068Z,11.06
2022-10-01T19:22:00.757Z,11.02
2022-10-01T19:24:47.125Z,11.04
2022-10-01T19:27:24.193Z,10.95
2022-10-01T19:30:06.116Z,10.93
2022-10-01T19:32:41.054Z,10.94
2022-10-01T19:35:16.743Z,10.98
2022-10-01T19:37:47.732Z,10.95
2022-10-01T19:40:22.015Z,10.93
2022-10-01T19:42:53.863Z,10.96
2022-10-01T19:45:24.713Z,10.95
2022-10-01T19:47:57.257Z,11.00
2022-10-01T19:50:27.476Z,10.97
2022-10-01T19:52:57.991Z,10.98
2022-10-01T19:55:26.226Z,10.98
2022-10-01T19:57:52.754Z,11.05
2022-10-01T20:00:21.070Z,11.05
2022-10-01T20:02:56.541Z,11.03
2022-10-01T20:05:28.118Z,11.07
2022-10-01T20:08:00.208Z,11.08
2022-10-01T20:10:33.153Z,11.07
2022-10-01T20:13:15.822Z,10.99
2022-10-01T20:15:49.246Z,11.01
2022-10-01T20:18:28.404Z,11.04
2022-10-01T20:21:10.360Z,10.97
2022-10-01T20:23:45.249Z,11.01
2022-10-01T20:26:21.290Z,10.97
2022-10-01T20:29:11.583Z,10.97
2022-10-01T20:31:44.751Z,10.99
2022-10-01T20:34:21.756Z,11.01
2022-10-01T20:36:57.582Z,11.03
2022-10-01T20:39:28.667Z,11.05
2022-10-01T20:41:56.095Z,11.06
2022-10-01T20:44:27.222Z,11.02
2022-10-01T20:46:59.880Z,11.07
2022-10-01T20:49:32.355Z,11.03
2022-10-01T20:52:03.546Z,11.04
2022-10-01T20:54:35.113Z,11.05
2022-10-01T20:57:07.643Z,11.05
2022-10-01T20:59:39.987Z,11.06
2022-10-01T21:02:23.919Z,11.06
2022-10-01T21:04:56.704Z,11.08
2022-10-01T21:07:32.632Z,11.11
2022-10-01T21:10:01.553Z,11.16
2022-10-01T21:12:35.991Z,11.22
2022-10-01T21:15:03.369Z,11.24
2022-10-01T21:17:40.092Z,11.27
2022-10-01T21:20:42.931Z,11.19
2022-10-01T21:23:25.205Z,11.23
2022-10-01T21:26:07.913Z,11.21
2022-10-01T21:29:02.003Z,11.12
2022-10-01T21:31:40.473Z,11.08
2022-10-01T21:34:13.580Z,10.89
2022-10-01T21:36:58.637Z,10.95
2022-10-01T21:39:32.377Z,11.02
2022-10-01T21:42:12.760Z,11.00
2022-10-01T21:44:59.761Z,11.05
2022-10-01T21:47:37.810Z,11.05
2022-10-01T21:50:15.372Z,11.01
2022-10-01T21:52:56.542Z,10.72
2022-10-01T21:55:41.836Z,10.77
2022-10-01T21:58:25.543Z,10.65
2022-10-01T22:00:59.030Z,10.52
2022-10-01T22:03:34.092Z,10.64
2022-10-01T22:06:07.759Z,10.68
2022-10-01T22:08:55.090Z,10.58
2022-10-01T22:11:24.364Z,10.57
2022-10-01T22:13:54.761Z,10.47
2022-10-01T22:16:24.157Z,10.55
2022-10-01T22:18:54.165Z,10.32
2022-10-01T22:21:25.400Z,10.41
2022-10-01T22:24:01.422Z,10.38
2022-10-01T22:26:32.421Z,10.31
2022-10-01T22:29:01.008Z,10.32
2022-10-01T22:31:32.772Z,10.43
2022-10-01T22:34:03.041Z,10.39
2022-10-01T22:36:35.147Z,10.27
2022-10-01T22:39:11.083Z,10.28
2022-10-01T22:41:42.163Z,10.25
2022-10-01T22:44:13.893Z,10.21
2022-10-01T22:46:58.593Z,10.27
2022-10-01T22:49:36.537Z,10.33
2022-10-01T22:52:17.787Z,10.27
2022-10-01T22:54:56.234Z,10.24
2022-10-01T22:57:45.484Z,10.25
2022-10-01T23:00:14.445Z,10.31
2022-10-01T23:02:45.444Z,10.32
2022-10-01T23:05:26.508Z,10.19
2022-10-01T23:08:03.160Z,10.29
2022-10-01T23:10:38.531Z,10.32
2022-10-01T23:13:17.212Z,10.35
2022-10-01T23:15:50.907Z,10.17
2022-10-01T23:18:29.396Z,10.10
2022-10-01T23:21:08.976Z,10.04
2022-10-01T23:23:35.540Z,10.13
2022-10-01T23:26:19.298Z,10.19
2022-10-01T23:29:02.612Z,10.09
2022-10-01T23:31:36.237Z,9.94
2022-10-01T23:34:21.545Z,9.87
2022-10-01T23:36:54.317Z,9.88
2022-10-01T23:39:44.267Z,9.90
2022-10-01T23:42:24.255Z,9.78
2022-10-01T23:45:02.093Z,9.77
2022-10-01T23:47:36.306Z,9.69
2022-10-01T23:50:05.871Z,9.53
2022-10-01T23:52:40.896Z,9.48
2022-10-01T23:55:15.002Z,9.40
2022-10-01T23:57:43.907Z,9.31
